Time;durP1;ratioP1;P1;durP2;ratioP2;P2;SDS_P1;SDS_P2;PMS_P1;PMS_P2;Temp;Humidity;BMP_temperature;BMP_pressure;BME280_temperature;BME280_humidity;BME280_pressure;Samples;Min_cycle;Max_cycle;Signal;HPM_P1;HPM_P2
2022/08/16 00:01:00;;;;;;;7.20;4.20;;;;;;;27.21;100.00;98726.10;1814028;79;21054;-71
2022/08/16 00:03:27;;;;;;;6.87;3.92;;;;;;;27.16;100.00;98729.50;1797286;79;22209;-70
2022/08/16 00:05:53;;;;;;;12.10;3.75;;;;;;;27.22;100.00;98731.14;1820422;78;20952;-68
2022/08/16 00:08:20;;;;;;;5.85;3.45;;;;;;;27.24;100.00;98733.52;1820341;78;20996;-68
2022/08/16 00:10:46;;;;;;;7.33;3.50;;;;;;;27.25;100.00;98737.91;1797172;78;21015;-70
2022/08/16 00:13:12;;;;;;;8.68;3.22;;;;;;;27.28;100.00;98739.20;1787737;78;21046;-72
2022/08/16 00:15:46;;;;;;;7.05;3.87;;;;;;;27.32;100.00;98737.67;1819713;78;21205;-68
2022/08/16 00:18:15;;;;;;;14.55;3.85;;;;;;;27.32;100.00;98740.51;1817477;78;21062;-73
2022/08/16 00:20:43;;;;;;;8.93;3.70;;;;;;;27.16;100.00;98735.16;1819468;78;20983;-71
2022/08/16 00:23:09;;;;;;;8.10;3.42;;;;;;;27.14;100.00;98737.66;1819915;77;20991;-73
2022/08/16 00:25:37;;;;;;;10.38;3.67;;;;;;;27.17;100.00;98739.58;1815966;78;20967;-71
2022/08/16 00:28:04;;;;;;;10.03;4.00;;;;;;;27.06;100.00;98744.77;1781751;79;22032;-69
2022/08/16 00:30:34;;;;;;;6.03;3.85;;;;;;;27.04;100.00;98740.98;1820584;78;21472;-69
2022/08/16 00:33:06;;;;;;;8.00;3.98;;;;;;;27.04;100.00;98741.63;1782867;79;21452;-66
2022/08/16 00:35:35;;;;;;;12.28;4.22;;;;;;;27.02;100.00;98739.84;1813367;78;21046;-73
2022/08/16 00:38:05;;;;;;;9.63;4.37;;;;;;;27.02;100.00;98742.66;1811291;78;21549;-72
2022/08/16 00:40:45;;;;;;;6.97;4.05;;;;;;;27.01;100.00;98736.83;1816624;78;21210;-74
2022/08/16 00:43:20;;;;;;;8.50;3.70;;;;;;;27.07;100.00;98735.84;1818929;78;21015;-71
2022/08/16 00:45:55;;;;;;;10.03;3.67;;;;;;;27.02;100.00;98735.60;1817793;78;20968;-70
2022/08/16 00:48:22;;;;;;;9.73;4.12;;;;;;;27.06;100.00;98744.77;1816456;78;21444;-70
2022/08/16 00:50:48;;;;;;;13.25;4.30;;;;;;;27.13;100.00;98738.89;1850143;77;20972;-69
2022/08/16 00:53:15;;;;;;;9.73;3.20;;;;;;;27.16;100.00;98736.56;1819938;78;21079;-73
2022/08/16 00:55:49;;;;;;;6.47;3.20;;;;;;;27.20;100.00;98740.08;1776527;79;21112;-71
2022/08/16 00:58:20;;;;;;;8.63;3.55;;;;;;;27.21;100.00;98738.82;1804716;78;20968;-67
2022/08/16 01:00:47;;;;;;;9.15;3.90;;;;;;;27.24;100.00;98742.80;1806927;78;20995;-72
2022/08/16 01:03:18;;;;;;;5.87;3.70;;;;;;;27.26;100.00;98743.11;1828954;77;20952;-69
2022/08/16 01:05:47;;;;;;;12.65;4.55;;;;;;;27.28;100.00;98751.16;1821335;77;21116;-71
2022/08/16 01:08:16;;;;;;;13.55;4.28;;;;;;;27.23;100.00;98751.09;1818699;78;20983;-66
2022/08/16 01:10:43;;;;;;;6.20;3.20;;;;;;;27.29;100.00;98751.31;1805120;78;21016;-70
2022/08/16 01:13:20;;;;;;;11.10;3.60;;;;;;;27.29;100.00;98752.11;1827321;77;20961;-71
2022/08/16 01:15:52;;;;;;;12.37;3.77;;;;;;;27.26;100.00;98750.17;1819115;77;21530;-70
2022/08/16 01:18:21;;;;;;;9.80;3.62;;;;;;;27.32;100.00;98761.71;1819071;78;21798;-74
2022/08/16 01:21:02;;;;;;;8.38;3.08;;;;;;;27.32;100.00;98759.69;1818873;78;21446;-72
2022/08/16 01:23:36;;;;;;;9.85;4.03;;;;;;;27.34;100.00;98764.27;1761358;78;20984;-72
2022/08/16 01:26:05;;;;;;;10.18;3.75;;;;;;;27.31;100.00;98763.73;1825144;77;21499;-72
2022/08/16 01:28:32;;;;;;;13.15;4.30;;;;;;;27.23;100.00;98779.35;1792904;78;21015;-72
2022/08/16 01:31:04;;;;;;;13.58;3.72;;;;;;;27.21;100.00;98784.69;1819686;77;21474;-66
2022/08/16 01:33:30;;;;;;;16.00;4.15;;;;;;;27.29;100.00;98780.38;1808266;78;20988;-71
2022/08/16 01:36:05;;;;;;;6.37;3.30;;;;;;;27.28;100.00;98784.44;1811143;78;21090;-72
2022/08/16 01:38:39;;;;;;;7.72;3.75;;;;;;;27.25;100.00;98776.07;1830554;77;21445;-71
2022/08/16 01:41:15;;;;;;;8.60;4.20;;;;;;;27.25;100.00;98770.42;1805169;78;21059;-70
2022/08/16 01:43:46;;;;;;;10.45;4.20;;;;;;;27.22;100.00;98765.86;1824774;77;21516;-72
2022/08/16 01:46:28;;;;;;;6.75;4.08;;;;;;;27.21;100.00;98754.37;1818585;78;21480;-70
2022/08/16 01:49:00;;;;;;;12.55;4.20;;;;;;;27.14;100.00;98754.62;1851858;76;21471;-73
2022/08/16 01:51:29;;;;;;;11.80;3.75;;;;;;;27.07;100.00;98747.14;1820308;77;21015;-65
2022/08/16 01:53:57;;;;;;;11.90;4.33;;;;;;;27.09;100.00;98735.41;1818993;78;21570;-70
2022/08/16 01:56:26;;;;;;;14.38;4.40;;;;;;;26.98;100.00;98744.19;1795309;78;21361;-71
2022/08/16 01:58:58;;;;;;;12.58;4.40;;;;;;;26.92;100.00;98748.19;1823693;77;20948;-69
2022/08/16 02:01:26;;;;;;;11.65;4.05;;;;;;;26.91;100.00;98749.45;1819819;77;20960;-70
2022/08/16 02:03:54;;;;;;;8.98;4.67;;;;;;;26.81;100.00;98741.48;1819085;78;21085;-73
2022/08/16 02:06:21;;;;;;;7.30;4.25;;;;;;;26.80;100.00;98744.13;1823591;77;21027;-67
2022/08/16 02:08:50;;;;;;;10.72;4.03;;;;;;;26.77;100.00;98737.97;1823553;77;21149;-69
2022/08/16 02:11:16;;;;;;;11.70;4.30;;;;;;;26.64;100.00;98729.49;1823914;77;21461;-72
2022/08/16 02:13:48;;;;;;;9.75;4.40;;;;;;;26.60;100.00;98722.54;1820028;78;21437;-66
2022/08/16 02:16:15;;;;;;;12.23;4.65;;;;;;;26.55;100.00;98725.92;1819067;78;20981;-72
2022/08/16 02:18:42;;;;;;;9.18;4.62;;;;;;;26.54;100.00;98720.11;1829378;77;21000;-68
2022/08/16 02:21:09;;;;;;;7.35;4.37;;;;;;;26.53;100.00;98716.33;1823648;77;21134;-71
2022/08/16 02:23:37;;;;;;;14.63;4.50;;;;;;;26.48;100.00;98718.45;1776705;78;21074;-71
2022/08/16 02:26:05;;;;;;;13.38;4.40;;;;;;;26.48;100.00;98714.84;1824027;77;20980;-67
2022/08/16 02:28:37;;;;;;;10.25;4.17;;;;;;;26.45;100.00;98708.68;1818706;78;21003;-62
2022/08/16 02:31:08;;;;;;;11.57;4.42;;;;;;;26.42;100.00;98701.11;1829216;77;20984;-65
2022/08/16 02:33:35;;;;;;;7.58;4.03;;;;;;;26.42;100.00;98685.59;1824059;77;21096;-75
2022/08/16 02:36:03;;;;;;;7.15;4.00;;;;;;;26.47;100.00;98686.44;1828579;77;20984;-66
2022/08/16 02:38:32;;;;;;;7.03;3.98;;;;;;;26.46;100.00;98689.87;1820486;77;21004;-69
2022/08/16 02:41:01;;;;;;;14.78;4.08;;;;;;;26.45;100.00;98688.92;1787888;78;21618;-63
2022/08/16 02:43:31;;;;;;;15.75;4.53;;;;;;;26.43;100.00;98685.13;1819166;77;21039;-73
2022/08/16 02:46:00;;;;;;;8.75;4.45;;;;;;;26.43;100.00;98680.09;1816323;77;21494;-68
2022/08/16 02:48:29;;;;;;;7.87;4.67;;;;;;;26.32;100.00;98681.22;1821588;77;20984;-69
2022/08/16 02:51:02;;;;;;;9.43;5.00;;;;;;;26.34;100.00;98683.61;1795771;77;21016;-73
2022/08/16 02:53:31;;;;;;;12.35;4.37;;;;;;;26.27;100.00;98686.61;1824772;77;21079;-73
2022/08/16 02:55:58;;;;;;;14.63;4.80;;;;;;;26.30;100.00;98691.36;1824355;77;20988;-65
2022/08/16 02:58:28;;;;;;;12.03;4.60;;;;;;;26.29;100.00;98688.38;1822373;77;21102;-62
2022/08/16 03:00:56;;;;;;;9.03;4.33;;;;;;;26.30;100.00;98678.66;1819548;78;21023;-67
2022/08/16 03:03:27;;;;;;;9.68;5.10;;;;;;;26.28;100.00;98681.13;1814890;78;21046;-67
2022/08/16 03:05:55;;;;;;;7.03;4.12;;;;;;;26.28;100.00;98682.54;1820289;77;21014;-63
2022/08/16 03:08:24;;;;;;;17.27;5.05;;;;;;;26.29;100.00;98682.73;1786045;78;21478;-69
2022/08/16 03:10:51;;;;;;;6.22;3.87;;;;;;;26.30;100.00;98677.24;1818752;78;22147;-66
2022/08/16 03:13:22;;;;;;;9.08;4.08;;;;;;;26.30;100.00;98674.42;1829586;77;20999;-61
2022/08/16 03:15:52;;;;;;;15.25;4.60;;;;;;;26.27;100.00;98669.67;1824295;77;21047;-64
2022/08/16 03:18:19;;;;;;;11.55;4.45;;;;;;;26.15;100.00;98667.80;1833537;77;21429;-69
2022/08/16 03:20:47;;;;;;;14.53;4.40;;;;;;;26.21;100.00;98670.23;1827950;77;21066;-66
2022/08/16 03:23:17;;;;;;;11.15;4.30;;;;;;;26.21;100.00;98669.43;1824468;78;21491;-62
2022/08/16 03:25:44;;;;;;;7.78;4.35;;;;;;;26.20;100.00;98674.30;1792084;78;21546;-71
2022/08/16 03:28:10;;;;;;;8.68;3.87;;;;;;;26.18;100.00;98674.56;1827789;77;21097;-69
2022/08/16 03:30:38;;;;;;;8.65;4.05;;;;;;;26.20;100.00;98678.54;1824280;77;21511;-63
2022/08/16 03:33:05;;;;;;;8.20;4.12;;;;;;;26.18;100.00;98675.37;1831342;77;20992;-71
2022/08/16 03:35:35;;;;;;;13.43;4.80;;;;;;;26.17;100.00;98671.59;1803526;78;21147;-62
2022/08/16 03:38:11;;;;;;;8.60;4.30;;;;;;;26.20;100.00;98672.89;1805637;78;21790;-69
2022/08/16 03:40:43;;;;;;;10.87;4.40;;;;;;;26.21;100.00;98672.25;1784903;79;21027;-65
2022/08/16 03:43:11;;;;;;;18.82;4.50;;;;;;;26.22;100.00;98665.39;1765290;79;21507;-66
2022/08/16 03:45:39;;;;;;;10.85;4.35;;;;;;;26.25;100.00;98660.25;1782200;80;21020;-70
2022/08/16 03:48:07;;;;;;;9.98;4.60;;;;;;;26.27;100.00;98668.27;1805066;79;21860;-64
2022/08/16 03:50:37;;;;;;;7.85;3.98;;;;;;;26.27;100.00;98669.67;1781696;80;21098;-68
2022/08/16 03:53:05;;;;;;;8.33;4.42;;;;;;;26.28;100.00;98664.20;1808385;78;21027;-72
2022/08/16 03:55:34;;;;;;;11.35;4.42;;;;;;;26.27;100.00;98666.86;1782038;80;21039;-67
2022/08/16 03:58:02;;;;;;;8.13;4.45;;;;;;;26.28;100.00;98674.07;1808814;78;21501;-64
2022/08/16 04:00:32;;;;;;;9.40;4.42;;;;;;;26.26;100.00;98667.47;1819766;77;21135;-61
2022/08/16 04:03:05;;;;;;;9.10;4.22;;;;;;;26.29;100.00;98682.73;1786975;78;20995;-65
2022/08/16 04:05:32;;;;;;;16.67;4.72;;;;;;;26.30;100.00;98667.36;1816635;78;21090;-63
2022/08/16 04:08:01;;;;;;;10.48;4.00;;;;;;;26.29;100.00;98674.27;1821353;77;21047;-63
2022/08/16 04:10:29;;;;;;;10.78;4.28;;;;;;;26.30;100.00;98681.48;1806042;78;21020;-66
2022/08/16 04:12:57;;;;;;;10.48;4.87;;;;;;;26.31;100.00;98673.97;1814515;78;21065;-62
2022/08/16 04:15:24;;;;;;;9.08;4.72;;;;;;;26.35;100.00;98676.72;1832869;77;21106;-68
2022/08/16 04:17:53;;;;;;;6.20;4.58;;;;;;;26.37;100.00;98675.66;1821139;77;21864;-64
2022/08/16 04:20:24;;;;;;;9.20;5.47;;;;;;;26.37;100.00;98674.23;1829811;77;20987;-71
2022/08/16 04:22:54;;;;;;;7.60;4.85;;;;;;;26.38;100.00;98663.11;1818741;78;21547;-71
2022/08/16 04:25:22;;;;;;;10.32;4.90;;;;;;;26.39;100.00;98663.30;1825817;77;21897;-71
2022/08/16 04:27:49;;;;;;;15.08;4.28;;;;;;;26.41;100.00;98655.14;1773992;79;20992;-72
2022/08/16 04:30:21;;;;;;;8.58;4.25;;;;;;;26.41;100.00;98657.97;1823705;77;20976;-72
2022/08/16 04:32:49;;;;;;;11.88;4.87;;;;;;;26.42;100.00;98652.52;1819354;77;21015;-68
2022/08/16 04:35:19;;;;;;;10.65;5.12;;;;;;;26.46;100.00;98656.64;1806482;78;21071;-67
2022/08/16 04:37:46;;;;;;;11.50;5.30;;;;;;;26.48;100.00;98659.16;1795932;77;21203;-65
2022/08/16 04:40:20;;;;;;;11.93;5.15;;;;;;;26.55;100.00;98652.50;1827628;77;21003;-64
2022/08/16 04:42:47;;;;;;;19.85;5.47;;;;;;;26.61;100.00;98661.21;1808947;77;22109;-65
2022/08/16 04:45:18;;;;;;;11.33;5.03;;;;;;;26.65;100.00;98659.69;1832248;77;20944;-70
2022/08/16 04:47:45;;;;;;;11.63;5.05;;;;;;;26.66;100.00;98658.44;1823556;77;20964;-63
2022/08/16 04:50:21;;;;;;;10.28;4.83;;;;;;;26.66;100.00;98659.23;1818183;77;21125;-71
2022/08/16 04:52:55;;;;;;;12.82;4.60;;;;;;;26.69;100.00;98668.82;1773172;79;20984;-62
2022/08/16 04:55:27;;;;;;;11.95;5.00;;;;;;;26.71;100.00;98671.38;1823035;77;21035;-69
2022/08/16 04:57:55;;;;;;;11.12;5.40;;;;;;;26.71;100.00;98669.17;1799307;78;21078;-70
2022/08/16 05:00:32;;;;;;;12.80;5.05;;;;;;;26.66;100.00;98686.06;1824005;78;21444;-73
2022/08/16 05:03:03;;;;;;;11.12;5.03;;;;;;;26.69;100.00;98677.30;1825365;78;21789;-71
2022/08/16 05:05:30;;;;;;;10.78;5.17;;;;;;;26.62;100.00;98691.02;1826586;77;21057;-65
2022/08/16 05:07:57;;;;;;;14.65;5.53;;;;;;;26.61;100.00;98689.45;1819180;77;21101;-69
2022/08/16 05:10:27;;;;;;;19.85;6.08;;;;;;;26.62;100.00;98685.38;1818722;77;21085;-71
2022/08/16 05:12:56;;;;;;;8.90;5.03;;;;;;;26.63;100.00;98690.41;1822817;77;21041;-62
2022/08/16 05:15:25;;;;;;;10.90;5.87;;;;;;;26.64;100.00;98693.39;1798551;78;21135;-65
2022/08/16 05:17:52;;;;;;;13.80;5.28;;;;;;;26.68;100.00;98678.55;1823751;77;21047;-72
2022/08/16 05:20:20;;;;;;;14.40;4.72;;;;;;;26.73;100.00;98677.34;1798502;78;21075;-65
2022/08/16 05:22:48;;;;;;;9.65;5.08;;;;;;;26.81;100.00;98686.39;1822948;77;21000;-72
2022/08/16 05:25:20;;;;;;;10.90;5.45;;;;;;;26.86;100.00;98696.33;1823325;77;21005;-67
2022/08/16 05:27:54;;;;;;;11.63;5.67;;;;;;;26.83;100.00;98700.86;1818110;78;21840;-63
2022/08/16 05:30:28;;;;;;;17.73;5.15;;;;;;;26.93;100.00;98699.55;1825568;77;20973;-73
2022/08/16 05:32:56;;;;;;;13.58;5.85;;;;;;;26.95;100.00;98702.10;1818831;78;20977;-68
2022/08/16 05:35:28;;;;;;;14.43;5.47;;;;;;;26.94;100.00;98707.56;1819683;77;21071;-72
2022/08/16 05:37:59;;;;;;;11.68;5.40;;;;;;;27.00;100.00;98705.59;1815956;77;20977;-68
2022/08/16 05:40:32;;;;;;;13.75;5.08;;;;;;;26.97;100.00;98701.01;1803798;78;22081;-69
2022/08/16 05:43:06;;;;;;;13.25;4.97;;;;;;;26.98;100.00;98717.34;1778602;79;22166;-76
2022/08/16 05:45:38;;;;;;;11.80;5.30;;;;;;;27.09;100.00;98718.45;1817037;77;21158;-69
2022/08/16 05:48:08;;;;;;;18.98;5.20;;;;;;;27.11;100.00;98717.35;1820879;77;22128;-72
2022/08/16 05:50:48;;;;;;;11.95;5.25;;;;;;;27.11;100.00;98724.42;1821425;77;21030;-68
2022/08/16 05:53:16;;;;;;;10.20;5.53;;;;;;;27.07;100.00;98724.53;1829835;77;21261;-68
2022/08/16 05:55:49;;;;;;;11.65;5.47;;;;;;;27.14;100.00;98725.56;1825763;77;21094;-68
2022/08/16 05:58:18;;;;;;;12.55;5.25;;;;;;;27.08;100.00;98725.33;1824144;77;20999;-70
2022/08/16 06:00:46;;;;;;;8.85;4.42;;;;;;;27.20;100.00;98722.32;1798267;77;21023;-71
2022/08/16 06:03:16;;;;;;;14.93;5.03;;;;;;;27.22;100.00;98719.22;1759588;79;21036;-67
2022/08/16 06:05:58;;;;;;;9.50;4.85;;;;;;;27.31;100.00;98732.64;1780145;79;21511;-70
2022/08/16 06:08:30;;;;;;;11.22;4.33;;;;;;;27.37;100.00;98727.83;1779599;79;21493;-73
2022/08/16 06:10:59;;;;;;;15.32;4.92;;;;;;;27.38;100.00;98731.61;1778931;79;21032;-69
2022/08/16 06:13:27;;;;;;;8.03;4.67;;;;;;;27.37;100.00;98732.06;1744904;81;21074;-67
2022/08/16 06:15:58;;;;;;;12.03;4.67;;;;;;;27.47;100.00;98730.91;1790347;79;21593;-68
2022/08/16 06:18:25;;;;;;;10.18;5.25;;;;;;;27.50;100.00;98736.30;1787746;79;21729;-72
2022/08/16 06:20:52;;;;;;;11.73;5.67;;;;;;;27.49;100.00;98719.94;1785296;79;21510;-68
2022/08/16 06:23:22;;;;;;;12.20;6.22;;;;;;;27.47;100.00;98726.67;1783886;77;20972;-64
2022/08/16 06:25:53;;;;;;;10.43;5.30;;;;;;;27.46;100.00;98727.31;1779700;79;20995;-67
2022/08/16 06:28:23;;;;;;;10.90;5.42;;;;;;;27.36;100.00;98738.36;1776564;79;21054;-71
2022/08/16 06:30:54;;;;;;;9.75;5.03;;;;;;;27.33;100.00;98748.53;1761270;80;21209;-70
2022/08/16 06:33:25;;;;;;;14.23;5.37;;;;;;;27.28;100.00;98744.86;1735411;81;21067;-70
2022/08/16 06:35:57;;;;;;;12.95;5.25;;;;;;;27.16;100.00;98758.41;1793433;77;21071;-69
2022/08/16 06:38:29;;;;;;;9.15;5.47;;;;;;;27.04;100.00;98767.06;1792016;79;21106;-74
2022/08/16 06:40:58;;;;;;;;;;;;;;;26.97;100.00;98791.42;1792016;79;21023;-69
2022/08/16 06:43:32;;;;;;;13.18;5.42;;;;;;;26.85;100.00;98802.11;1775666;80;21813;-72
2022/08/16 06:46:06;;;;;;;16.60;5.97;;;;;;;26.61;100.00;98788.29;1791539;79;21028;-70
2022/08/16 06:48:36;;;;;;;14.15;6.37;;;;;;;26.38;100.00;98808.49;1796426;79;21028;-67
2022/08/16 06:51:08;;;;;;;14.58;5.83;;;;;;;26.22;100.00;98814.33;1782660;79;20985;-73
2022/08/16 06:53:38;;;;;;;17.30;6.13;;;;;;;26.19;100.00;98819.45;1762662;79;21057;-70
2022/08/16 06:56:07;;;;;;;16.12;6.83;;;;;;;26.18;100.00;98830.59;1764717;80;21631;-68
2022/08/16 06:58:45;;;;;;;20.32;6.08;;;;;;;26.25;100.00;98826.78;1775511;80;21082;-69
2022/08/16 07:01:18;;;;;;;18.12;5.78;;;;;;;26.29;100.00;98832.33;1813414;78;21045;-67
2022/08/16 07:03:49;;;;;;;17.95;6.58;;;;;;;26.31;100.00;98840.51;1825169;78;21014;-62
2022/08/16 07:06:18;;;;;;;12.90;6.75;;;;;;;26.31;100.00;98856.64;1825728;78;21023;-69
2022/08/16 07:08:46;;;;;;;16.17;6.30;;;;;;;26.28;100.00;98862.57;1811327;78;21214;-65
2022/08/16 10:44:02;;;;;;;9.00;5.30;;;;;;;25.44;100.00;99014.03;1837785;77;22590;-75
2022/08/16 10:46:34;;;;;;;8.33;5.33;;;;;;;25.59;100.00;99003.88;1808187;79;21020;-74
2022/08/16 10:49:01;;;;;;;9.70;4.97;;;;;;;25.53;100.00;99007.20;1807335;78;21232;-76
2022/08/16 10:51:28;;;;;;;7.85;5.40;;;;;;;25.60;100.00;99005.45;1806913;79;20984;-76
2022/08/16 10:53:59;;;;;;;5.65;4.47;;;;;;;25.60;100.00;99018.94;1806558;79;20960;-73
2022/08/16 10:56:25;;;;;;;8.10;4.37;;;;;;;25.64;100.00;99024.53;1805309;79;20925;-74
2022/08/16 10:58:53;;;;;;;12.40;5.42;;;;;;;25.63;100.00;99024.31;1797910;79;20872;-72
2022/08/16 11:01:21;;;;;;;10.63;4.75;;;;;;;25.62;100.00;99026.96;1798269;79;21091;-76
2022/08/16 11:03:52;;;;;;;8.58;5.15;;;;;;;25.64;100.00;99023.13;1792474;79;20944;-78
2022/08/16 11:06:20;;;;;;;9.15;4.80;;;;;;;25.66;100.00;99024.87;1789830;80;20964;-77
2022/08/16 11:08:50;;;;;;;10.45;5.12;;;;;;;25.65;100.00;99023.30;1790372;79;20929;-73
2022/08/16 11:11:18;;;;;;;7.87;5.08;;;;;;;25.66;100.00;99024.87;1790694;80;20987;-74
2022/08/16 11:13:48;;;;;;;6.20;4.92;;;;;;;26.19;100.00;99009.97;1770285;80;21469;-77
2022/08/16 11:16:18;;;;;;;11.38;5.05;;;;;;;26.34;100.00;99007.61;1789549;79;21548;-74
2022/08/16 11:18:45;;;;;;;11.33;5.42;;;;;;;26.03;100.00;99007.14;1804963;79;20905;-74
2022/08/16 11:21:19;;;;;;;9.50;4.92;;;;;;;26.51;100.00;99004.80;1808564;79;21434;-78
2022/08/16 11:23:49;;;;;;;8.38;5.00;;;;;;;26.67;100.00;99013.84;1759913;79;20956;-77
2022/08/16 11:26:16;;;;;;;5.03;4.53;;;;;;;26.35;100.00;99023.33;1808176;79;21199;-77
2022/08/16 11:28:43;;;;;;;10.03;4.83;;;;;;;26.82;100.00;99017.08;1807731;79;20934;-76
2022/08/16 11:31:13;;;;;;;7.47;5.45;;;;;;;26.93;100.00;99010.34;1779366;79;20881;-70
2022/08/16 11:33:39;;;;;;;9.53;4.78;;;;;;;27.04;100.00;99008.03;1781935;78;20956;-73
2022/08/16 11:36:08;;;;;;;11.45;4.25;;;;;;;27.09;100.00;99013.14;1775529;79;21520;-74
2022/08/16 11:38:39;;;;;;;12.10;5.45;;;;;;;27.16;100.00;99005.72;1768021;79;21561;-77
2022/08/16 11:41:15;;;;;;;9.88;5.40;;;;;;;27.26;100.00;99001.00;1801249;79;21430;-78
2022/08/16 11:43:47;;;;;;;8.80;5.42;;;;;;;27.29;100.00;98995.23;1796662;79;20925;-72
2022/08/16 11:46:16;;;;;;;19.10;5.45;;;;;;;27.28;100.00;99001.34;1767751;80;20948;-77
2022/08/16 11:48:45;;;;;;;13.78;5.67;;;;;;;27.20;100.00;99001.55;1784724;80;20921;-77
2022/08/16 11:51:12;;;;;;;11.60;5.22;;;;;;;27.17;100.00;99006.69;1789696;79;21504;-74
2022/08/16 11:53:44;;;;;;;9.73;5.72;;;;;;;27.16;100.00;99002.89;1750128;79;21825;-72
2022/08/16 11:56:13;;;;;;;16.00;6.17;;;;;;;27.10;100.00;99012.53;1791733;79;20921;-79
2022/08/16 11:58:41;;;;;;;9.25;4.80;;;;;;;26.97;100.00;99013.88;1762254;79;21036;-71
2022/08/16 12:01:08;;;;;;;9.75;5.72;;;;;;;27.03;100.00;99015.55;1802973;79;21013;-75
2022/08/16 12:03:36;;;;;;;11.63;5.55;;;;;;;27.08;100.00;99009.36;1777983;79;21150;-74
2022/08/16 12:06:15;;;;;;;9.18;5.20;;;;;;;27.03;100.00;99018.37;1793194;79;20866;-73
2022/08/16 12:08:45;;;;;;;10.53;5.62;;;;;;;26.98;100.00;99019.08;1778294;79;20906;-77
2022/08/16 12:11:11;;;;;;;13.60;6.35;;;;;;;27.04;100.00;99018.57;1783122;79;21576;-75
2022/08/16 12:13:45;;;;;;;9.93;6.60;;;;;;;27.02;100.00;99021.02;1775302;79;21513;-76
2022/08/16 12:16:18;;;;;;;10.95;6.53;;;;;;;26.93;100.00;99025.28;1778364;79;21904;-73
2022/08/16 12:18:46;;;;;;;10.55;5.95;;;;;;;27.01;100.00;99016.58;1772612;79;21000;-69
2022/08/16 12:21:13;;;;;;;11.28;5.95;;;;;;;27.03;100.00;99017.77;1788626;79;21099;-75
2022/08/16 12:23:40;;;;;;;12.40;6.83;;;;;;;26.98;100.00;99018.28;1797660;79;21013;-73
2022/08/16 12:26:07;;;;;;;13.98;6.08;;;;;;;26.97;100.00;99021.72;1774079;79;21564;-75
2022/08/16 12:28:34;;;;;;;12.93;6.42;;;;;;;26.84;100.00;99013.80;1742302;81;21862;-72
2022/08/16 12:31:03;;;;;;;12.95;7.20;;;;;;;26.89;100.00;99008.23;1779971;79;22080;-74
2022/08/16 12:33:32;;;;;;;13.95;6.28;;;;;;;26.96;100.00;99013.69;1787680;79;21524;-76
2022/08/16 12:36:01;;;;;;;12.55;7.47;;;;;;;27.02;100.00;99006.88;1765742;79;21029;-73
2022/08/16 12:38:29;;;;;;;12.63;7.65;;;;;;;27.05;100.00;98997.53;1787237;79;21543;-73
2022/08/16 12:40:57;;;;;;;10.82;7.28;;;;;;;27.05;100.00;98994.71;1763042;79;21788;-76
2022/08/16 12:43:24;;;;;;;13.80;7.30;;;;;;;27.15;100.00;99001.29;1774981;80;20842;-72
2022/08/16 12:46:00;;;;;;;16.02;6.67;;;;;;;27.18;100.00;98997.56;1732356;80;20955;-75
2022/08/16 12:51:17;;;;;;;12.80;6.25;;;;;;;27.21;100.00;98996.70;1720527;83;20932;-75
2022/08/16 12:53:46;;;;;;;12.37;7.50;;;;;;;27.22;100.00;98999.07;1720079;83;21204;-73
2022/08/16 12:56:12;;;;;;;12.28;6.83;;;;;;;27.24;100.00;98994.98;1719127;83;21003;-75
2022/08/16 12:58:49;;;;;;;9.85;6.47;;;;;;;27.22;100.00;99000.48;1719394;83;20951;-74
2022/08/16 13:01:20;;;;;;;10.53;7.28;;;;;;;27.24;100.00;98995.80;1719919;83;21094;-73
2022/08/16 13:03:47;;;;;;;11.20;6.45;;;;;;;26.93;100.00;99004.09;1719740;83;21548;-73
2022/08/16 13:06:17;;;;;;;21.27;7.30;;;;;;;26.92;100.00;99004.53;1731633;81;21660;-71
2022/08/16 13:08:50;;;;;;;11.95;7.65;;;;;;;27.27;100.00;98999.12;1763337;81;21601;-75
2022/08/16 13:11:35;;;;;;;16.02;8.23;;;;;;;27.33;100.00;98999.38;1738247;81;21500;-71
2022/08/16 13:14:05;;;;;;;9.30;6.78;;;;;;;27.33;100.00;98997.33;1728434;82;21039;-76
2022/08/16 13:16:32;;;;;;;16.62;7.25;;;;;;;27.40;100.00;98998.38;1724250;81;21051;-72
2022/08/16 13:19:03;;;;;;;15.40;7.05;;;;;;;27.29;100.00;98998.07;1770102;81;21023;-73
2022/08/16 13:21:31;;;;;;;11.05;7.47;;;;;;;27.35;100.00;98995.46;1764149;81;21014;-73
2022/08/16 13:23:59;;;;;;;11.57;7.10;;;;;;;27.39;100.00;98999.60;1757668;81;20975;-74
2022/08/16 13:26:27;;;;;;;12.80;7.10;;;;;;;27.39;100.00;99004.64;1770796;81;21034;-75
2022/08/16 13:28:56;;;;;;;15.75;6.80;;;;;;;27.32;100.00;99004.23;1757922;80;21393;-72
2022/08/16 13:31:27;;;;;;;20.30;7.17;;;;;;;27.37;100.00;99000.66;1742445;79;21562;-73
2022/08/16 13:33:56;;;;;;;12.15;6.80;;;;;;;27.23;100.00;99002.67;1765995;81;20923;-75
2022/08/16 13:36:22;;;;;;;11.18;7.87;;;;;;;27.16;100.00;99003.67;1767986;81;20948;-72
2022/08/16 13:38:49;;;;;;;13.90;6.33;;;;;;;27.14;100.00;99004.76;1768845;81;21020;-75
2022/08/16 13:41:18;;;;;;;14.20;6.00;;;;;;;27.16;100.00;99005.08;1740629;81;21500;-68
2022/08/16 13:43:44;;;;;;;15.48;6.30;;;;;;;27.10;100.00;98989.92;1777129;79;21345;-76
2022/08/16 13:46:13;;;;;;;8.83;6.08;;;;;;;27.22;100.00;98992.00;1790516;79;20835;-74
2022/08/16 13:48:39;;;;;;;15.80;6.17;;;;;;;27.17;100.00;98990.34;1763681;81;21505;-73
2022/08/16 13:51:08;;;;;;;11.35;5.47;;;;;;;27.13;100.00;98986.81;1773636;80;21057;-73
2022/08/16 13:53:36;;;;;;;8.33;5.17;;;;;;;27.12;100.00;98986.03;1771468;80;21023;-70
2022/08/16 13:56:03;;;;;;;16.42;5.37;;;;;;;27.10;100.00;98982.25;1781835;80;20930;-76
2022/08/16 13:58:32;;;;;;;8.90;5.33;;;;;;;27.02;100.00;98975.22;1774994;80;20938;-78
2022/08/16 14:01:03;;;;;;;11.90;5.12;;;;;;;26.89;100.00;98985.02;1770307;80;20996;-77
2022/08/16 14:03:30;;;;;;;10.82;5.97;;;;;;;26.86;100.00;98974.61;1787819;80;21461;-76
2022/08/16 14:05:57;;;;;;;10.32;5.28;;;;;;;26.83;100.00;98972.68;1775746;80;21025;-75
2022/08/16 14:08:25;;;;;;;8.95;5.42;;;;;;;26.91;100.00;98977.50;1795135;80;20933;-72
2022/08/16 14:10:51;;;;;;;9.28;5.50;;;;;;;26.88;100.00;98975.58;1774969;80;20994;-72
2022/08/16 14:13:26;;;;;;;9.08;5.67;;;;;;;26.88;100.00;98970.72;1785574;80;20986;-74
2022/08/16 14:15:54;;;;;;;10.65;6.03;;;;;;;26.90;100.00;98975.31;1770199;80;21437;-74
2022/08/16 14:18:26;;;;;;;10.50;5.75;;;;;;;26.90;100.00;98970.28;1770135;79;21024;-75
2022/08/16 14:20:55;;;;;;;8.78;5.53;;;;;;;26.90;100.00;98972.48;1760164;80;21510;-75
2022/08/16 14:23:25;;;;;;;9.30;5.95;;;;;;;26.94;100.00;98976.60;1765527;80;21497;-71
2022/08/16 14:25:53;;;;;;;9.58;5.75;;;;;;;26.97;100.00;98980.74;1766272;80;20920;-70
2022/08/16 14:28:24;;;;;;;12.18;5.90;;;;;;;26.96;100.00;98979.78;1764285;81;20862;-72
2022/08/16 14:30:51;;;;;;;8.48;6.60;;;;;;;26.97;100.00;98988.45;1763764;81;21449;-69
2022/08/16 14:33:23;;;;;;;12.10;6.65;;;;;;;26.96;100.00;98986.23;1785024;80;20957;-73
2022/08/16 14:35:51;;;;;;;18.98;7.08;;;;;;;27.04;100.00;98979.00;1794406;80;20921;-71
2022/08/16 14:38:20;;;;;;;13.50;6.83;;;;;;;26.98;100.00;98982.34;1790225;80;20917;-72
2022/08/16 14:40:47;;;;;;;12.63;6.70;;;;;;;26.97;100.00;98977.92;1749375;82;20955;-73
2022/08/16 14:43:18;;;;;;;11.93;6.20;;;;;;;27.03;100.00;98980.23;1732319;81;21116;-73
2022/08/16 14:45:46;;;;;;;11.43;6.70;;;;;;;27.05;100.00;98979.97;1734643;82;22054;-74
2022/08/16 14:48:16;;;;;;;13.93;6.58;;;;;;;27.14;100.00;98986.39;1721467;83;20881;-70
2022/08/16 14:50:44;;;;;;;11.60;6.10;;;;;;;27.15;100.00;98985.14;1721840;82;20845;-75
2022/08/16 14:53:17;;;;;;;12.63;6.95;;;;;;;27.14;100.00;98984.98;1737013;82;21015;-79
2022/08/16 14:55:44;;;;;;;11.73;7.05;;;;;;;27.13;100.00;98986.20;1721929;82;21031;-74
2022/08/16 14:58:14;;;;;;;13.88;6.97;;;;;;;27.10;100.00;98991.34;1730026;82;20976;-76
2022/08/16 15:00:40;;;;;;;14.55;7.67;;;;;;;27.10;100.00;98984.27;1731731;82;21064;-73
2022/08/16 15:03:09;;;;;;;20.77;7.50;;;;;;;27.12;100.00;98983.82;1725600;82;21044;-76
2022/08/16 15:05:56;;;;;;;10.45;6.33;;;;;;;27.13;100.00;98992.46;1616176;88;21016;-72